Aviation Digital Data Service (ADDS)

Output produced by METARs form (1320 UTC 14 December 2017)
found at http://aviationweather.gov/adds/metars/
 
KPHF 141133Z 1412/1512 23015G23KT P6SM SCT200 
     FM141700 29014G21KT P6SM SKC 
     FM142100 33008KT P6SM SKC 
     FM142300 36005KT P6SM SCT250 
     FM150200 03003KT P6SM BKN200